Kaduna Old Airport

DN53 · Kaduna, Nigeria

Storia di METAR DN53 · Kaduna Old Airport

Di seguito sono riportati i METAR degli ultimi giorni. Seleziona un anno per sfogliare i METAR più vecchi, dall'anno 2007 in poi.

9 dicembre 2022

Tempo Codice Tempo metereologico Temp. Vista Base nuvolosa Vento METAR/SPECI
09:00
V
23 °C 8 km - 070° 070° 12 kt METAR DNKA 090800Z 07012KT 8000 NSC 23/07 Q1019 NOSIG
09:00
V
23 °C 8 km - 070° 070° 12 kt METAR DNKA 090800Z 07012KT 8000 NSC 23/07 Q1019 NOSIG
08:00
V
21 °C 8 km - 050° 050° 14 kt METAR DNKA 090700Z 05014KT 8000 NSC 21/03 Q1018 NOSIG
07:00
V
20 °C 8 km - 060° 060° 13 kt METAR DNKA 090600Z 06013KT 8000 NSC 20/2 Q1017 NOSIG
06:00
V
20 °C 10 km+ - 070° 070° 12 kt METAR DNKA 090500Z 07012KT CAVOK 20/02 Q1017 NOSIG
05:00
V
21 °C 10 km+ - 070° 070° 7 kt METAR DNKA 090400Z 07007KT CAVOK 21/02 Q1017
03:00
V
22 °C 10 km+ - 040° 040° 11 kt METAR DNKA 090200Z 04011KT CAVOK 22/03 Q1017 NOSIG
01:00
V
23 °C 10 km+ - 030° 030° 6 kt METAR DNKA 090000Z 03006KT CAVOK 23/2 Q1017 NOSIG

8 dicembre 2022

Tempo Codice Tempo metereologico Temp. Vista Base nuvolosa Vento METAR/SPECI
21:00
V
26 °C 10 km+ - 030° 030° 6 kt METAR DNKA 082000Z 03006KT CAVOK 26/03 Q1018 NOSIG
20:00
V
27 °C 10 km+ - 050° 050° 8 kt METAR DNKA 081900Z 05008KT CAVOK 27/5 Q1017 NOSIG
18:00
V
28 °C 10 km+ - 060° 060° 8 kt METAR DNKA 081700Z 06008KT CAVOK 28/05 Q1015 NOSIG
17:00
V
30 °C 8 km - 050° 050° 12 kt METAR DNKA 081600Z 05012KT 8000 NSC 30/06 Q1014
16:00
V
32 °C 8 km - 050° 050° 12 kt METAR DNKA 081500Z 05012KT 8000 HZ NSC 32/06 Q1014 NOSIG
15:00
V
35 °C 8 km - 030° 030° 14 kt METAR DNKA 081400Z 03014KT 8000 HZ NSC 35/7 Q1014
12:00
V
29 °C 8 km - 050° 050° 12 kt METAR DNKA 081100Z 05012KT 8000 HZ NSC 29/04 Q1017
10:00
V
26 °C 10 km+ - 050° 050° 13 kt METAR DNKA 080900Z 05013KT CAVOK 26/03 Q1018 NOSIG
09:00
V
24 °C 10 km+ - 080° 080° 8 kt METAR DNKA 080800Z 08008KT CAVOK 24/03 Q1017 NOSIG
05:00
V
21 °C 10 km+ - 080° 080° 7 kt METAR DNKA 080400Z 08007KT CAVOK 21/02 Q1015
00:00
V
25 °C 10 km+ - 350° 350° 3 kt METAR DNKA 072300Z 35003KT CAVOK 25/03 Q1016

7 dicembre 2022

Tempo Codice Tempo metereologico Temp. Vista Base nuvolosa Vento METAR/SPECI
23:00
V
26 °C 10 km+ - 040° 040° 5 kt METAR DNKA 072200Z 04005KT CAVOK 26/03 Q1016 NOSIG
21:00
V
28 °C 10 km+ - 030° 030° 8 kt METAR DNKA 072000Z 03008KT CAVOK 28/2 Q1016 NOSIG
20:00
V
28 °C 10 km+ - 060° 060° 8 kt METAR DNKA 071900Z 06008KT 9999 HZ NSC 28/2 Q1015 NOSIG
18:00
V
29 °C 10 km+ - 040° 040° 7 kt METAR DNKA 071700Z 04007KT CAVOK 29/03 Q1013
17:00
V
32 °C 10 km+ - 030° 030° 6 kt METAR DNKA 071600Z 03006KT CAVOK 32/5 Q1013 NOSIG
15:00
M
33 °C 7 km - 090° 090° 12 kt METAR DNKA 071400Z 09012KT 7000 NSC 33/4 Q1013 NOSIG
11:00
M
29 °C 7 km - 070° 070° 12 kt METAR DNKA 071000Z 07012KT 7000 NSC 29/03 Q1016 NOSIG
09:00
I
22 °C 2,5 km - 060° 060° 9 kt METAR DNKA 070800Z 06009KT 2500 HZ NSC 22/2 Q1016 NOSIG
07:00
I
18 °C 1,7 km - 050° 050° 6 kt METAR DNKA 070600Z 05006KT 1700 HZ NSC 18/1 Q1015 NOSIG
06:00
L
17 °C 1 km - 050° 050° 6 kt METAR DNKA 070500Z 05006KT 1000 DZ NSC 17/00 Q1015 NOSIG
05:00
L
18 °C 1 km - 040° 040° 2 kt METAR DNKA 070400Z 04002KT 1000 DU NSC 18/00 Q1014 NOSIG
04:00
L
18 °C 1 km - 040° 040° 5 kt METAR DNKA 070300Z 04005KT 1000 DU NSC 18/01 Q1014 NOSIG
03:00
L
19 °C 1 km - 030° 030° 4 kt METAR DNKA 070200Z 03004KT 1000 DU NSC 19/00 Q1014 NOSIG
00:00
L
21 °C 1 km - 070° 070° 6 kt METAR DNKA 062300Z 07006KT 1000 DU NSC 21/01 Q1016 NOSIG

6 dicembre 2022

Tempo Codice Tempo metereologico Temp. Vista Base nuvolosa Vento METAR/SPECI
23:00
L
23 °C 1 km - 020° 020° 4 kt METAR DNKA 062200Z 02004KT 1000 DU 23/01 Q1016 NOSIG
22:00
L
24 °C 1 km - 030° 030° 6 kt METAR DNKA 062100Z 03006KT 1000 DU NSC 24/01 Q1016 NOSIG
21:00
L
24 °C 1 km - 040° 040° 5 kt METAR DNKA 062000Z 04005KT 1000 DZ NSC 24/01 Q1016 NOSIG
20:00
U
26 °C 0 m - 030° 030° 6 kt METAR DNKA 061900Z 03006KT 900 HZ NSC 26/00 Q1015 NOSIG
19:00
U
27 °C 0 m - 030° 030° 7 kt METAR DNKA 061800Z 03007KT 900 HZ NSC 27/00 Q1014 NOSIG
18:00
L
28 °C 1 km - 020° 020° 6 kt METAR DNKA 061700Z 02006KT 1000 HZ NSC 28/00 Q1013
17:00
I
30 °C 1,5 km - 030° 030° 8 kt METAR DNKA 061600Z 03008KT 1500 HZ NSC 30/05 Q1013 TEMPO 0800

Noi e le terze parti seguiamo il tuo comportamento su internet con i cookie. Se continui, riteniamo che tu sia d'accordo con la nostra Politica sui cookie.